Latest METARs, TAFs and NOTAMs for MMTO


---------------------------------------------------------------------------
	(OBSERVATIONS)
MMTO 230748Z 00000KT 4SM  SCT015 SCT070 12/11 A3034  RMK 8/560
    HZY FU=
MMTO 230649Z 00000KT 4SM  SCT015 BKN070 13/11 A3034  RMK 8/560
    FU HZY=
---------------------------------------------------------------------------
	(TERMINAL AREA FORECAST)
MMTO 230502Z 2306/2412 00000KT P6SM BKN015 BKN070 TX26/2321Z
    TN10/2312Z
    FM230900 00000KT 3SM BR HZ SCT015 SCT070
    TEMPO 2310/2314 1SM BR BKN010
    FM231600 36008KT 6SM HZ SCT015
    FM231900 33010KT P6SM BKN015CB OVC070
    TEMPO 2322/2402 2SM TSRA=
---------------------------------------------------------------------------
	(NOTAMS)


MMTO A0572/17 CHANGED NAME OF THE FOLLOWING REPORTING POINTS:
    LIMBO TO TAKUG NOGAL TO LENEG PUBLISHED IN CHART AD-MMTO-LL-1,
    AD-MMTO-LL-4, AD-MMTO-LL-7-RNAV/LL-8-RNAV PUBLISHED IN ANEX
    TO SUP 06/12 DATE 21-SEP-2012 MEXICO AIP. 27 JAN 03:46 2017
    UNTIL PERM. CREATED: 27 JAN 04:02 2017

MMTO A1851/17 RWY 15/33 CLSD. 1600/1700 DAYS MON, 10 APR 16:00
    2017 UNTIL 31 JUL 17:00 2017. CREATED: 31 MAR 20:24 2017

---------------------------------------------------------------------------